Time;durP1;ratioP1;P1;durP2;ratioP2;P2;SDS_P1;SDS_P2;PMS_P1;PMS_P2;Temp;Humidity;BMP_temperature;BMP_pressure;BME280_temperature;BME280_humidity;BME280_pressure;Samples;Min_cycle;Max_cycle;Signal;HPM_P1;HPM_P2
2022/08/20 00:00:31;;;;;;;2.20;2.00;;;19.30;99.90;;;;;;4878265;29;20229;-63
2022/08/20 00:03:04;;;;;;;2.50;2.13;;;19.20;99.90;;;;;;4879035;29;20279;-63
2022/08/20 00:05:35;;;;;;;2.00;1.90;;;19.30;99.90;;;;;;4878812;29;20331;-63
2022/08/20 00:08:04;;;;;;;2.40;2.20;;;19.20;99.90;;;;;;4879311;29;20252;-63
2022/08/20 00:10:34;;;;;;;2.17;1.97;;;19.20;99.90;;;;;;4878622;29;20320;-63
2022/08/20 00:13:04;;;;;;;2.97;2.07;;;19.20;99.90;;;;;;4879975;29;20251;-63
2022/08/20 00:15:35;;;;;;;2.73;2.00;;;19.20;99.90;;;;;;4878099;29;20760;-63
2022/08/20 00:18:05;;;;;;;2.50;2.30;;;19.20;99.90;;;;;;4878355;29;20252;-63
2022/08/20 00:20:36;;;;;;;2.40;2.20;;;19.20;99.90;;;;;;4878773;29;20756;-63
2022/08/20 00:23:06;;;;;;;2.03;1.90;;;19.20;99.90;;;;;;4880294;29;20237;-63
2022/08/20 00:25:38;;;;;;;2.07;1.87;;;19.20;99.90;;;;;;4878247;29;20337;-64
2022/08/20 00:28:07;;;;;;;4.20;2.43;;;19.20;99.90;;;;;;4878346;29;20597;-63
2022/08/20 00:30:36;;;;;;;2.90;2.10;;;19.10;99.90;;;;;;4878020;29;20336;-64
2022/08/20 00:33:09;;;;;;;2.50;2.30;;;19.20;99.90;;;;;;4878129;29;20233;-63
2022/08/20 00:35:41;;;;;;;2.73;2.10;;;19.10;99.90;;;;;;4878515;29;20322;-63
2022/08/20 00:38:09;;;;;;;4.40;2.00;;;19.10;99.90;;;;;;4878418;29;20333;-64
2022/08/20 00:40:40;;;;;;;2.30;2.10;;;19.10;99.90;;;;;;4878309;29;20279;-63
2022/08/20 00:43:31;;;;;;;2.50;2.30;;;19.10;99.90;;;;;;4871985;29;20323;-63
2022/08/20 00:46:01;;;;;;;2.80;2.50;;;19.00;99.90;;;;;;4874897;29;20588;-63
2022/08/20 00:48:33;;;;;;;2.57;2.20;;;19.00;99.90;;;;;;4879441;29;20237;-62
2022/08/20 00:51:05;;;;;;;2.67;2.47;;;19.00;99.90;;;;;;4882108;29;20281;-63
2022/08/20 00:53:34;;;;;;;2.70;2.50;;;19.00;99.90;;;;;;4881896;29;20683;-63
2022/08/20 00:56:04;;;;;;;2.40;2.20;;;19.10;99.90;;;;;;4881828;29;20244;-63
2022/08/20 00:58:33;;;;;;;2.70;2.50;;;19.10;99.90;;;;;;4881076;29;20776;-63
2022/08/20 01:01:01;;;;;;;3.63;2.50;;;19.10;99.90;;;;;;4881109;29;20245;-63
2022/08/20 01:03:32;;;;;;;3.20;2.70;;;19.10;99.90;;;;;;4881401;29;20327;-63
2022/08/20 01:06:00;;;;;;;2.90;2.60;;;19.10;99.90;;;;;;4881368;29;20281;-63
2022/08/20 01:08:28;;;;;;;3.60;2.70;;;19.10;99.90;;;;;;4881273;29;20233;-63
2022/08/20 01:11:08;;;;;;;3.10;2.80;;;19.10;99.90;;;;;;4881771;29;20768;-63
2022/08/20 01:13:38;;;;;;;3.40;3.10;;;19.20;99.90;;;;;;4882523;29;20243;-61
2022/08/20 01:16:14;;;;;;;4.20;3.23;;;19.20;99.90;;;;;;4875834;29;20694;-63
2022/08/20 01:18:47;;;;;;;3.80;3.20;;;19.10;99.90;;;;;;4880431;29;20255;-63
2022/08/20 01:21:19;;;;;;;3.30;3.10;;;19.10;99.90;;;;;;4881190;29;20233;-63
2022/08/20 01:23:54;;;;;;;3.60;3.10;;;19.10;99.90;;;;;;4880959;29;20311;-63
2022/08/20 01:26:27;;;;;;;5.87;3.67;;;19.10;99.90;;;;;;4881393;29;20688;-63
2022/08/20 01:28:58;;;;;;;4.17;3.87;;;19.10;99.90;;;;;;4880670;29;20665;-63
2022/08/20 01:31:30;;;;;;;4.30;3.90;;;19.00;99.90;;;;;;4880833;29;20756;-62
2022/08/20 01:34:01;;;;;;;4.00;3.60;;;19.00;99.90;;;;;;4880941;29;20327;-63
2022/08/20 01:36:34;;;;;;;3.60;3.30;;;19.00;99.90;;;;;;4872718;29;20230;-63
2022/08/20 01:39:08;;;;;;;3.80;3.20;;;19.00;99.90;;;;;;4862605;29;20328;-63
2022/08/20 01:41:52;;;;;;;4.23;3.87;;;19.00;99.90;;;;;;4862454;29;20655;-63
2022/08/20 01:44:21;;;;;;;4.60;4.20;;;19.00;99.90;;;;;;4870537;29;20327;-64
2022/08/20 01:46:54;;;;;;;4.10;3.80;;;19.00;99.90;;;;;;4880439;29;20236;-61
2022/08/20 01:49:28;;;;;;;4.47;4.07;;;19.00;99.90;;;;;;4880826;29;20257;-63
2022/08/20 01:51:59;;;;;;;5.13;4.50;;;18.90;99.90;;;;;;4880536;29;20327;-63
2022/08/20 01:54:28;;;;;;;4.93;4.53;;;19.00;99.90;;;;;;4880762;29;20630;-62
2022/08/20 01:57:02;;;;;;;5.30;4.80;;;19.00;99.90;;;;;;4880076;29;20265;-63
2022/08/20 01:59:30;;;;;;;5.57;4.83;;;19.00;99.90;;;;;;4880363;29;20328;-63
2022/08/20 02:02:01;;;;;;;5.20;4.70;;;19.00;99.90;;;;;;4880288;29;20251;-63
2022/08/20 02:04:30;;;;;;;5.67;5.00;;;19.00;99.90;;;;;;4880315;29;20276;-63
2022/08/20 02:07:00;;;;;;;5.23;4.73;;;19.00;99.90;;;;;;4881544;29;20252;-63
2022/08/20 02:09:30;;;;;;;5.57;5.07;;;19.00;99.90;;;;;;4880223;29;20234;-64
2022/08/20 02:12:01;;;;;;;7.37;5.50;;;19.00;99.90;;;;;;4852816;29;20309;-64
2022/08/20 02:14:30;;;;;;;7.00;5.43;;;18.90;99.90;;;;;;4875868;29;20237;-63
2022/08/20 02:16:59;;;;;;;6.17;5.67;;;18.90;99.90;;;;;;4880304;29;20276;-62
2022/08/20 02:19:37;;;;;;;8.40;5.77;;;18.90;99.90;;;;;;4880353;29;20237;-63
2022/08/20 02:22:14;;;;;;;6.37;5.60;;;18.90;99.90;;;;;;4880377;29;20279;-63
2022/08/20 02:24:43;;;;;;;6.60;6.00;;;18.90;99.90;;;;;;4876819;29;20303;-64
2022/08/20 02:27:13;;;;;;;6.30;5.80;;;18.90;99.90;;;;;;4879838;29;20243;-64
2022/08/20 02:29:42;;;;;;;6.67;5.73;;;18.90;99.90;;;;;;4879717;29;20240;-63
2022/08/20 02:32:10;;;;;;;6.10;5.60;;;18.90;99.90;;;;;;4879624;29;20327;-64
2022/08/20 02:35:01;;;;;;;6.67;6.07;;;18.90;99.90;;;;;;4879974;29;20320;-63
2022/08/20 02:37:29;;;;;;;6.57;5.97;;;18.90;99.90;;;;;;4862165;29;20236;-63
2022/08/20 02:39:57;;;;;;;6.60;5.90;;;19.00;99.90;;;;;;4861294;29;20241;-63
2022/08/20 02:42:27;;;;;;;7.33;6.33;;;19.00;99.90;;;;;;4861151;29;20361;-62
2022/08/20 02:44:56;;;;;;;6.40;5.27;;;19.00;99.90;;;;;;4878946;29;20574;-64
2022/08/20 02:47:24;;;;;;;6.50;5.90;;;19.00;99.90;;;;;;4879665;29;20241;-63
2022/08/20 02:49:53;;;;;;;7.20;6.40;;;19.00;99.90;;;;;;4880044;29;20324;-63
2022/08/20 02:52:21;;;;;;;7.57;6.87;;;19.00;99.90;;;;;;4879805;29;20233;-63
2022/08/20 02:54:49;;;;;;;7.43;6.73;;;19.00;99.90;;;;;;4879753;29;20234;-63
2022/08/20 02:57:19;;;;;;;7.10;6.50;;;18.90;99.90;;;;;;4879465;29;20225;-63
2022/08/20 02:59:51;;;;;;;7.17;6.47;;;18.90;99.90;;;;;;4879247;29;20245;-63
2022/08/20 03:02:19;;;;;;;6.83;6.17;;;19.00;99.90;;;;;;4862843;29;20330;-63
2022/08/20 03:04:47;;;;;;;6.50;5.90;;;19.00;99.90;;;;;;4876274;29;20236;-63
2022/08/20 03:07:15;;;;;;;6.63;6.03;;;19.00;99.90;;;;;;4879297;29;20251;-64
2022/08/20 03:09:43;;;;;;;6.93;6.30;;;19.00;99.90;;;;;;4879200;29;20327;-63
2022/08/20 03:12:11;;;;;;;7.20;6.30;;;18.90;99.90;;;;;;4875976;29;20238;-63
2022/08/20 03:14:39;;;;;;;6.53;5.93;;;18.90;99.90;;;;;;4876090;29;20237;-63
2022/08/20 03:17:08;;;;;;;9.33;6.73;;;18.90;99.90;;;;;;4879240;29;20245;-63
2022/08/20 03:19:37;;;;;;;8.10;7.13;;;18.90;99.90;;;;;;4878299;29;20240;-63
2022/08/20 03:22:05;;;;;;;6.87;6.00;;;18.90;99.90;;;;;;4879421;29;20324;-63
2022/08/20 03:24:33;;;;;;;7.93;6.47;;;18.80;99.90;;;;;;4879033;29;20593;-63
2022/08/20 03:27:01;;;;;;;7.40;6.70;;;18.90;99.90;;;;;;4878852;29;20619;-63
2022/08/20 03:29:29;;;;;;;7.83;7.10;;;18.90;99.90;;;;;;4878772;29;20666;-63
2022/08/20 03:31:58;;;;;;;7.63;6.87;;;18.90;99.90;;;;;;4867787;29;20726;-63
2022/08/20 03:34:27;;;;;;;7.93;6.70;;;18.80;99.90;;;;;;4878418;29;20692;-63
2022/08/20 03:36:55;;;;;;;8.67;6.53;;;18.80;99.90;;;;;;4879028;29;20247;-63
2022/08/20 03:39:23;;;;;;;7.80;6.80;;;18.80;99.90;;;;;;4879388;29;20243;-63
2022/08/20 03:41:51;;;;;;;8.20;7.37;;;18.80;99.90;;;;;;4879229;29;20316;-63
2022/08/20 03:44:19;;;;;;;8.90;7.13;;;18.80;99.90;;;;;;4879807;29;20642;-63
2022/08/20 03:46:48;;;;;;;6.73;6.13;;;18.80;99.90;;;;;;4878546;29;20236;-63
2022/08/20 03:49:16;;;;;;;7.63;6.87;;;18.70;99.90;;;;;;4879038;29;20252;-63
2022/08/20 03:51:45;;;;;;;9.13;7.90;;;18.70;99.90;;;;;;4878950;29;20750;-61
2022/08/20 03:54:25;;;;;;;10.30;8.33;;;18.70;99.90;;;;;;4879047;29;20256;-63
2022/08/20 03:56:58;;;;;;;9.10;7.67;;;18.70;99.90;;;;;;4872356;29;20244;-63
2022/08/20 03:59:26;;;;;;;8.47;7.67;;;18.70;99.90;;;;;;4878692;29;20229;-62
2022/08/20 04:01:55;;;;;;;7.83;7.13;;;18.70;99.90;;;;;;4876635;29;20233;-63
2022/08/20 04:04:23;;;;;;;9.40;8.50;;;18.70;99.90;;;;;;4879107;29;20693;-63
2022/08/20 04:06:52;;;;;;;9.67;8.77;;;18.70;99.90;;;;;;4878901;29;20246;-63
2022/08/20 04:09:20;;;;;;;9.03;8.13;;;18.70;99.90;;;;;;4878587;29;20253;-64
2022/08/20 04:11:48;;;;;;;9.10;8.23;;;18.80;99.90;;;;;;4878827;29;20697;-62
2022/08/20 04:14:17;;;;;;;10.17;9.20;;;18.90;99.90;;;;;;4878703;29;20336;-63
2022/08/20 04:16:47;;;;;;;11.80;9.93;;;18.90;99.90;;;;;;4878607;29;20686;-63
2022/08/20 04:19:16;;;;;;;10.77;9.63;;;18.80;99.90;;;;;;4878483;29;20740;-63
2022/08/20 04:21:47;;;;;;;10.70;9.50;;;18.80;99.90;;;;;;4878841;29;20664;-62
2022/08/20 04:24:16;;;;;;;10.60;9.50;;;18.80;99.90;;;;;;4881092;29;20328;-63
2022/08/20 04:27:01;;;;;;;10.97;9.87;;;18.80;99.90;;;;;;4875552;29;20244;-63
2022/08/20 04:29:30;;;;;;;11.63;10.43;;;18.90;99.90;;;;;;4881794;29;20240;-61
2022/08/20 04:32:01;;;;;;;14.00;10.40;;;18.90;99.90;;;;;;4896648;29;20717;-63
2022/08/20 04:34:33;;;;;;;12.07;10.43;;;18.90;99.90;;;;;;4896394;29;20239;-63
2022/08/20 04:37:01;;;;;;;12.20;11.00;;;18.90;99.90;;;;;;4901075;29;20748;-63
2022/08/20 04:39:31;;;;;;;13.40;11.40;;;18.90;99.90;;;;;;4900405;29;20228;-63
2022/08/20 04:41:58;;;;;;;12.23;11.03;;;18.90;99.90;;;;;;4899081;29;20236;-63
2022/08/20 04:44:27;;;;;;;11.97;10.73;;;19.00;99.90;;;;;;4883108;29;20602;-62
2022/08/20 04:46:55;;;;;;;13.33;11.93;;;19.00;99.90;;;;;;4881851;29;20236;-63
2022/08/20 04:49:25;;;;;;;12.80;11.60;;;19.00;99.90;;;;;;4881200;29;20241;-63
2022/08/20 04:51:54;;;;;;;12.53;11.23;;;19.00;99.90;;;;;;4891295;29;20310;-63
2022/08/20 04:54:22;;;;;;;13.57;11.93;;;19.10;99.90;;;;;;4887535;29;20706;-64
2022/08/20 04:56:52;;;;;;;13.00;11.63;;;19.00;99.90;;;;;;4881167;29;20296;-63
2022/08/20 04:59:20;;;;;;;11.87;10.67;;;19.10;99.90;;;;;;4881466;29;20242;-63
2022/08/20 05:01:48;;;;;;;13.07;11.73;;;19.10;99.90;;;;;;4880913;29;20339;-63
2022/08/20 05:04:16;;;;;;;12.63;11.43;;;19.10;99.90;;;;;;4886753;29;20244;-63
2022/08/20 05:06:44;;;;;;;14.40;12.07;;;19.10;99.90;;;;;;4900134;29;20692;-62
2022/08/20 05:09:12;;;;;;;12.17;10.97;;;19.10;99.90;;;;;;4900454;29;20604;-62
2022/08/20 05:11:40;;;;;;;13.70;12.10;;;19.10;99.90;;;;;;4886740;29;20239;-62
2022/08/20 05:14:10;;;;;;;12.93;11.63;;;19.10;99.90;;;;;;4881350;29;20332;-62
2022/08/20 05:16:39;;;;;;;13.43;11.80;;;19.20;99.90;;;;;;4880354;29;20243;-63
2022/08/20 05:19:11;;;;;;;12.83;11.43;;;19.20;99.90;;;;;;4880869;29;20249;-63
2022/08/20 05:21:40;;;;;;;12.53;11.23;;;19.20;99.90;;;;;;4879171;29;20593;-63
2022/08/20 05:24:08;;;;;;;14.53;13.03;;;19.20;99.90;;;;;;4880977;29;20279;-63
2022/08/20 05:26:37;;;;;;;13.33;11.73;;;19.20;99.90;;;;;;4880311;29;20244;-63
2022/08/20 05:29:06;;;;;;;12.73;11.43;;;19.30;99.90;;;;;;4880936;29;20331;-63
2022/08/20 05:31:37;;;;;;;14.57;12.23;;;19.30;99.90;;;;;;4880293;29;20237;-63
2022/08/20 05:34:08;;;;;;;12.57;11.27;;;19.30;99.90;;;;;;4883791;29;20307;-63
2022/08/20 05:36:39;;;;;;;13.00;11.40;;;19.40;99.90;;;;;;4880566;29;20229;-62
2022/08/20 05:39:08;;;;;;;12.53;11.30;;;19.40;99.90;;;;;;4880388;29;20251;-63
2022/08/20 05:41:37;;;;;;;12.20;10.87;;;19.40;99.90;;;;;;4881376;29;20312;-63
2022/08/20 05:44:09;;;;;;;12.37;11.10;;;19.50;99.90;;;;;;4881914;29;20681;-63
2022/08/20 05:46:39;;;;;;;14.17;12.77;;;19.50;99.90;;;;;;4880563;29;20237;-63
2022/08/20 05:49:08;;;;;;;13.57;11.63;;;19.50;99.90;;;;;;4880470;29;20753;-63
2022/08/20 05:51:36;;;;;;;13.23;11.87;;;19.60;99.90;;;;;;4881652;29;20720;-63
2022/08/20 05:54:05;;;;;;;14.83;12.27;;;19.60;99.90;;;;;;4880007;29;20241;-63
2022/08/20 05:56:34;;;;;;;12.90;11.60;;;19.70;99.90;;;;;;4880089;29;20238;-63
2022/08/20 05:59:05;;;;;;;14.57;13.03;;;19.70;99.90;;;;;;4880324;29;20646;-62
2022/08/20 06:01:35;;;;;;;13.53;12.13;;;19.80;99.90;;;;;;4878579;29;20240;-63
2022/08/20 06:04:23;;;;;;;14.10;12.53;;;19.80;99.90;;;;;;4879728;29;20615;-63
2022/08/20 06:06:52;;;;;;;12.57;11.23;;;19.90;99.90;;;;;;4880892;29;20749;-63
2022/08/20 06:09:22;;;;;;;14.47;12.63;;;20.00;99.90;;;;;;4880411;29;20316;-63
2022/08/20 06:12:01;;;;;;;15.53;13.93;;;20.00;99.90;;;;;;4878433;29;20740;-63
2022/08/20 06:14:29;;;;;;;14.43;12.90;;;20.00;99.90;;;;;;4877390;29;20240;-63
2022/08/20 06:17:04;;;;;;;14.53;13.00;;;20.00;99.90;;;;;;4880023;29;20319;-62
2022/08/20 06:19:34;;;;;;;13.00;11.63;;;20.00;99.90;;;;;;4877199;29;20233;-61
2022/08/20 06:22:02;;;;;;;12.90;11.37;;;20.00;99.90;;;;;;4879827;29;20303;-64
2022/08/20 06:24:47;;;;;;;12.47;11.27;;;20.00;99.90;;;;;;4879448;29;20704;-63
2022/08/20 06:27:16;;;;;;;16.37;13.83;;;20.10;99.90;;;;;;4879944;29;20230;-63
2022/08/20 06:29:44;;;;;;;13.47;12.17;;;20.20;99.90;;;;;;4879209;29;20324;-61
2022/08/20 06:32:12;;;;;;;15.40;12.63;;;20.50;99.90;;;;;;4874128;29;20234;-63
2022/08/20 06:34:42;;;;;;;15.33;12.60;;;20.80;99.90;;;;;;4879769;29;20692;-63
2022/08/20 06:37:20;;;;;;;14.07;12.67;;;21.00;99.90;;;;;;4878313;29;20237;-64
2022/08/20 06:39:48;;;;;;;15.07;13.20;;;21.10;99.90;;;;;;4879596;29;20233;-63
2022/08/20 06:42:16;;;;;;;14.10;12.70;;;21.10;99.90;;;;;;4879704;29;20572;-64
2022/08/20 06:44:48;;;;;;;14.93;13.43;;;21.10;99.90;;;;;;4874857;29;20243;-63
2022/08/20 06:47:17;;;;;;;16.17;14.47;;;21.10;99.90;;;;;;4878957;29;20329;-64
2022/08/20 06:49:47;;;;;;;13.43;12.03;;;21.30;99.90;;;;;;4879328;29;20687;-63
2022/08/20 06:52:16;;;;;;;12.97;10.90;;;21.70;99.90;;;;;;4879103;29;20245;-64
2022/08/20 06:54:45;;;;;;;11.17;10.17;;;22.20;99.90;;;;;;4878744;29;20711;-64
2022/08/20 06:57:13;;;;;;;11.40;9.83;;;22.60;99.90;;;;;;4879482;29;20285;-64
2022/08/20 06:59:42;;;;;;;8.67;7.60;;;22.70;99.90;;;;;;4878316;29;20301;-64
2022/08/20 07:02:15;;;;;;;10.00;9.00;;;22.70;99.90;;;;;;4859634;29;20240;-64
2022/08/20 07:04:44;;;;;;;8.47;6.90;;;22.80;99.90;;;;;;4871233;29;21321;-64
2022/08/20 07:07:18;;;;;;;6.00;5.40;;;22.80;99.90;;;;;;4874265;29;20236;-64
2022/08/20 07:09:46;;;;;;;5.00;4.30;;;22.50;99.90;;;;;;4880802;29;20252;-64
2022/08/20 07:12:14;;;;;;;6.73;4.67;;;22.40;99.90;;;;;;4879484;29;20244;-64
2022/08/20 07:14:43;;;;;;;5.63;3.87;;;22.30;99.90;;;;;;4878783;29;20325;-65
2022/08/20 07:17:12;;;;;;;4.80;4.10;;;22.20;99.90;;;;;;4851546;29;20237;-65
2022/08/20 07:19:40;;;;;;;6.73;3.90;;;22.40;99.90;;;;;;4842278;29;20715;-65
2022/08/20 07:22:08;;;;;;;6.90;3.47;;;22.80;99.90;;;;;;4842248;29;20315;-63
2022/08/20 07:24:37;;;;;;;5.43;3.33;;;23.20;99.90;;;;;;4847657;29;20733;-64
2022/08/20 07:27:09;;;;;;;5.20;2.77;;;23.70;99.90;;;;;;4860319;29;20242;-63
2022/08/20 07:32:35;;;;;;;5.63;2.60;;;24.30;99.90;;;;;;4863098;29;20779;-64
2022/08/20 07:35:11;;;;;;;4.63;2.53;;;24.60;99.90;;;;;;4856287;29;20243;-64
2022/08/20 07:37:40;;;;;;;5.43;2.43;;;24.90;99.90;;;;;;4856479;29;20591;-64
2022/08/20 07:40:13;;;;;;;4.07;1.93;;;25.10;99.90;;;;;;4872042;29;20241;-64
2022/08/20 07:42:41;;;;;;;5.07;2.37;;;25.20;99.90;;;;;;4879071;29;20706;-63
2022/08/20 07:45:12;;;;;;;9.33;2.50;;;25.20;99.90;;;;;;4860564;29;20311;-64
2022/08/20 07:47:41;;;;;;;4.53;2.40;;;25.00;99.90;;;;;;4859929;29;20641;-64
2022/08/20 07:50:12;;;;;;;4.40;2.10;;;24.60;99.90;;;;;;4841788;29;20229;-64
2022/08/20 07:52:40;;;;;;;4.53;2.30;;;24.60;99.90;;;;;;4842048;29;20604;-63
2022/08/20 07:55:12;;;;;;;4.93;2.60;;;25.00;99.90;;;;;;4843303;29;20723;-64
2022/08/20 07:57:41;;;;;;;5.47;2.87;;;25.20;99.90;;;;;;4861604;29;20654;-65
2022/08/20 08:00:11;;;;;;;5.87;2.57;;;25.20;99.90;;;;;;4849143;29;20780;-64
2022/08/20 08:02:39;;;;;;;4.43;2.33;;;25.00;99.90;;;;;;4864579;29;20448;-60
2022/08/20 08:05:08;;;;;;;3.83;2.43;;;25.00;99.90;;;;;;4867304;29;20716;-66
2022/08/20 08:07:38;;;;;;;4.70;2.30;;;24.90;99.90;;;;;;4864056;29;20237;-65
2022/08/20 08:10:17;;;;;;;5.70;2.50;;;24.60;99.90;;;;;;4845608;29;20233;-65
2022/08/20 08:12:49;;;;;;;6.70;2.33;;;24.60;99.90;;;;;;4875980;29;20691;-66
2022/08/20 08:15:21;;;;;;;7.67;2.90;;;24.80;99.90;;;;;;4863838;29;20239;-66
2022/08/20 08:17:51;;;;;;;6.40;2.57;;;25.10;99.90;;;;;;4858677;29;20334;-66
2022/08/20 08:20:21;;;;;;;7.23;2.50;;;25.50;99.90;;;;;;4882069;29;20313;-66
2022/08/20 08:22:50;;;;;;;5.53;2.37;;;25.60;99.90;;;;;;4875226;29;20506;-65
2022/08/20 08:25:20;;;;;;;4.33;2.00;;;25.60;99.90;;;;;;4864773;29;20779;-63
2022/08/20 08:27:48;;;;;;;6.67;2.50;;;25.60;99.90;;;;;;4864052;29;20902;-64
2022/08/20 08:30:16;;;;;;;9.53;2.50;;;25.80;99.90;;;;;;4863648;29;20326;-66
2022/08/20 08:35:31;;;;;;;6.73;2.50;;;26.00;99.90;;;;;;4863034;29;20319;-65
2022/08/20 08:38:01;;;;;;;4.90;2.27;;;26.00;99.90;;;;;;4863261;29;20701;-65
2022/08/20 08:40:32;;;;;;;7.93;2.37;;;25.70;99.90;;;;;;4864140;29;20327;-65
2022/08/20 08:43:03;;;;;;;5.73;2.43;;;25.40;99.90;;;;;;4858883;29;20237;-65
2022/08/20 08:45:40;;;;;;;7.00;2.53;;;25.40;99.90;;;;;;4863079;29;20610;-65
2022/08/20 08:48:09;;;;;;;5.70;2.43;;;25.40;99.90;;;;;;4863555;29;20730;-63
2022/08/20 08:50:46;;;;;;;6.97;2.13;;;25.90;99.90;;;;;;4862170;29;20693;-65
2022/08/20 08:53:25;;;;;;;6.80;2.50;;;26.10;99.90;;;;;;4859878;29;20245;-64
2022/08/20 08:55:55;;;;;;;6.20;2.60;;;26.50;99.90;;;;;;4862931;29;20378;-64
2022/08/20 08:58:23;;;;;;;8.77;2.43;;;26.60;99.90;;;;;;4863286;29;20247;-65
2022/08/20 09:00:51;;;;;;;6.60;2.30;;;26.70;99.90;;;;;;4862340;29;20252;-66
2022/08/20 09:03:28;;;;;;;5.80;1.90;;;26.80;99.90;;;;;;4858865;29;20238;-65
2022/08/20 09:05:58;;;;;;;9.90;2.67;;;26.80;99.90;;;;;;4862172;29;20284;-65
2022/08/20 09:08:30;;;;;;;5.27;2.10;;;26.80;99.90;;;;;;4861387;29;20568;-65
2022/08/20 09:11:03;;;;;;;10.70;2.67;;;26.90;99.90;;;;;;4862178;29;20241;-66
2022/08/20 09:13:32;;;;;;;7.53;2.27;;;26.90;99.90;;;;;;4860172;29;20560;-65
2022/08/20 09:16:00;;;;;;;6.07;2.10;;;27.30;99.90;;;;;;4862375;29;20259;-66
2022/08/20 09:18:29;;;;;;;8.60;2.30;;;27.90;99.90;;;;;;4862063;29;20618;-66
2022/08/20 09:20:57;;;;;;;9.53;2.30;;;28.20;99.90;;;;;;4861044;29;20256;-64
2022/08/20 09:23:25;;;;;;;8.30;2.20;;;28.50;99.90;;;;;;4860112;29;20927;-66
2022/08/20 09:25:53;;;;;;;6.60;2.40;;;28.20;99.90;;;;;;4862010;29;20240;-64
2022/08/20 09:28:22;;;;;;;6.53;2.30;;;27.50;99.90;;;;;;4862196;29;20244;-65
2022/08/20 09:30:51;;;;;;;5.63;2.27;;;27.10;99.90;;;;;;4862119;29;20240;-65
2022/08/20 09:33:22;;;;;;;6.73;2.03;;;27.30;99.90;;;;;;4858406;29;20291;-66
2022/08/20 09:35:50;;;;;;;8.77;2.70;;;27.80;99.90;;;;;;4862402;29;20225;-66
2022/08/20 09:38:18;;;;;;;7.03;2.30;;;28.20;99.90;;;;;;4860668;29;21021;-59
2022/08/20 09:40:46;;;;;;;7.40;2.40;;;28.50;99.90;;;;;;4853535;29;20237;-64
2022/08/20 09:43:15;;;;;;;7.20;2.40;;;28.80;99.90;;;;;;4851450;29;20331;-64
2022/08/20 09:45:44;;;;;;;8.40;2.10;;;28.70;99.90;;;;;;4860740;29;20609;-64
2022/08/20 09:48:12;;;;;;;6.50;2.10;;;29.00;99.90;;;;;;4861895;29;20663;-64
2022/08/20 09:50:45;;;;;;;5.40;1.80;;;29.30;99.90;;;;;;4860991;29;20638;-65
2022/08/20 09:53:14;;;;;;;5.00;1.70;;;28.90;99.90;;;;;;4855297;29;20233;-64
2022/08/20 09:55:45;;;;;;;6.33;2.07;;;28.90;99.90;;;;;;4854658;29;20292;-65
2022/08/20 09:58:20;;;;;;;5.67;1.80;;;28.90;99.90;;;;;;4853664;29;20731;-63
2022/08/20 10:00:50;;;;;;;6.30;2.10;;;28.60;99.90;;;;;;4858369;29;20261;-64
2022/08/20 10:03:18;;;;;;;7.30;2.03;;;28.60;99.90;;;;;;4859478;29;20226;-64
2022/08/20 10:05:47;;;;;;;3.60;1.53;;;28.90;99.90;;;;;;4844336;29;20294;-64
2022/08/20 10:08:15;;;;;;;4.90;1.70;;;29.50;99.90;;;;;;4863027;29;20607;-64
2022/08/20 10:10:43;;;;;;;6.90;1.50;;;29.90;99.90;;;;;;4853947;29;20823;-65
2022/08/20 10:13:11;;;;;;;5.70;1.87;;;29.90;99.90;;;;;;4848586;29;20253;-64
2022/08/20 10:15:42;;;;;;;7.40;1.90;;;30.00;99.90;;;;;;4852789;29;20243;-65
2022/08/20 10:18:12;;;;;;;4.63;1.53;;;29.60;99.90;;;;;;4853859;29;20368;-64
2022/08/20 10:20:41;;;;;;;6.20;1.50;;;29.70;99.90;;;;;;4864028;29;20269;-64
2022/08/20 10:23:09;;;;;;;5.30;1.80;;;29.20;99.90;;;;;;4860327;29;20333;-64
2022/08/20 10:25:38;;;;;;;5.00;1.77;;;29.00;99.90;;;;;;4860000;29;21041;-64
2022/08/20 10:28:06;;;;;;;6.83;1.60;;;28.90;99.90;;;;;;4866391;29;20374;-64
2022/08/20 10:30:35;;;;;;;6.13;1.47;;;28.50;99.90;;;;;;4879557;29;20260;-65
2022/08/20 10:33:03;;;;;;;5.47;1.70;;;28.30;99.90;;;;;;4881402;29;20265;-65
2022/08/20 10:35:32;;;;;;;6.13;1.50;;;28.30;99.90;;;;;;4879820;29;20321;-65
2022/08/20 10:38:00;;;;;;;5.70;1.40;;;28.30;99.90;;;;;;4879401;29;20230;-65
2022/08/20 10:40:29;;;;;;;6.70;1.73;;;28.40;99.90;;;;;;4876144;29;20230;-64
2022/08/20 10:42:57;;;;;;;4.83;1.43;;;28.30;99.90;;;;;;4879716;29;20232;-65
2022/08/20 10:45:25;;;;;;;5.67;1.37;;;28.40;99.90;;;;;;4878780;29;20316;-65
2022/08/20 10:47:53;;;;;;;4.90;1.30;;;28.50;99.90;;;;;;4877262;29;20317;-65
2022/08/20 10:50:21;;;;;;;5.43;1.40;;;28.40;99.90;;;;;;4876247;29;20317;-65
2022/08/20 10:52:50;;;;;;;5.13;1.40;;;28.30;99.90;;;;;;4876504;29;20236;-65
2022/08/20 10:55:20;;;;;;;6.87;1.50;;;28.20;99.90;;;;;;4879804;29;20241;-65
2022/08/20 10:57:48;;;;;;;4.10;1.20;;;28.00;99.90;;;;;;4885797;29;20694;-64
2022/08/20 11:00:18;;;;;;;3.73;1.43;;;27.80;99.90;;;;;;4879330;29;20233;-65
2022/08/20 11:02:46;;;;;;;4.77;1.30;;;27.40;99.90;;;;;;4878991;29;20246;-64
2022/08/20 11:05:14;;;;;;;3.57;1.20;;;27.20;99.90;;;;;;4892428;29;20232;-65
2022/08/20 11:07:44;;;;;;;3.20;1.17;;;27.60;99.90;;;;;;4880698;29;20244;-65
2022/08/20 11:10:35;;;;;;;4.30;1.47;;;27.90;99.90;;;;;;4878395;29;20232;-64
2022/08/20 11:13:05;;;;;;;2.93;1.00;;;28.00;99.90;;;;;;4879428;29;20601;-65
2022/08/20 11:15:36;;;;;;;4.00;1.10;;;28.10;99.90;;;;;;4877720;29;20238;-65
2022/08/20 11:18:05;;;;;;;3.67;1.33;;;28.20;99.90;;;;;;4878085;29;20737;-65
2022/08/20 11:20:35;;;;;;;4.93;1.50;;;28.20;99.90;;;;;;4880033;29;20248;-64
2022/08/20 11:23:03;;;;;;;3.87;1.17;;;28.30;99.90;;;;;;4877078;29;20309;-65
2022/08/20 11:25:33;;;;;;;5.30;1.30;;;27.80;99.90;;;;;;4863522;29;20233;-65
2022/08/20 11:28:02;;;;;;;4.63;1.20;;;28.00;99.90;;;;;;4857399;29;20242;-64
2022/08/20 11:30:32;;;;;;;3.50;1.27;;;28.50;99.90;;;;;;4856490;29;20237;-64
2022/08/20 11:33:01;;;;;;;3.80;1.10;;;29.30;99.90;;;;;;4856460;29;21933;-65
2022/08/20 11:35:32;;;;;;;5.30;1.20;;;29.80;99.90;;;;;;4850206;29;20249;-65
2022/08/20 11:38:18;;;;;;;2.13;1.10;;;29.70;99.90;;;;;;4858212;29;20718;-65
2022/08/20 11:40:47;;;;;;;2.87;1.23;;;29.80;99.90;;;;;;4857276;29;20325;-65
2022/08/20 11:43:16;;;;;;;4.20;1.30;;;30.00;99.90;;;;;;4853828;29;20350;-65
2022/08/20 11:45:47;;;;;;;3.97;1.30;;;30.30;99.90;;;;;;4854276;29;21356;-64
2022/08/20 11:48:17;;;;;;;3.47;1.30;;;30.50;98.40;;;;;;4861507;29;20238;-65
2022/08/20 11:50:46;;;;;;;3.77;1.20;;;30.30;99.90;;;;;;4859033;29;20244;-65
2022/08/20 11:53:14;;;;;;;4.13;1.20;;;30.00;99.10;;;;;;4853260;29;20238;-65
2022/08/20 11:55:43;;;;;;;1.90;1.00;;;29.70;98.80;;;;;;4870191;29;20240;-66
2022/08/20 11:58:12;;;;;;;3.93;1.07;;;29.50;99.30;;;;;;4875968;29;20242;-66
2022/08/20 12:00:41;;;;;;;3.77;1.00;;;29.40;99.90;;;;;;4869090;29;20269;-66
2022/08/20 12:03:09;;;;;;;4.93;1.30;;;29.50;99.90;;;;;;4882179;29;20297;-66
2022/08/20 12:05:39;;;;;;;5.07;1.27;;;29.20;99.80;;;;;;4878558;29;20238;-66
2022/08/20 12:08:08;;;;;;;2.73;1.10;;;29.00;99.90;;;;;;4875749;29;20235;-66
2022/08/20 12:10:37;;;;;;;5.47;1.33;;;29.20;99.90;;;;;;4872966;29;20269;-65
2022/08/20 12:13:05;;;;;;;4.73;1.33;;;29.30;99.90;;;;;;4879375;29;20258;-66
2022/08/20 12:15:36;;;;;;;3.43;1.00;;;28.90;99.90;;;;;;4878332;29;20234;-66
2022/08/20 12:18:07;;;;;;;5.10;1.33;;;28.60;99.90;;;;;;4878829;29;20264;-66
2022/08/20 12:20:35;;;;;;;3.67;1.13;;;28.80;99.90;;;;;;4878814;29;20745;-66
2022/08/20 12:23:04;;;;;;;4.87;0.90;;;28.80;99.90;;;;;;4878646;29;20720;-66
2022/08/20 12:25:33;;;;;;;3.53;1.10;;;28.60;99.90;;;;;;4874035;29;20736;-66
2022/08/20 12:28:03;;;;;;;4.60;1.07;;;28.50;99.90;;;;;;4877651;29;20245;-66
2022/08/20 12:30:32;;;;;;;4.03;1.10;;;28.20;99.90;;;;;;4877679;29;20256;-66
2022/08/20 12:33:01;;;;;;;3.87;1.00;;;27.90;99.90;;;;;;4876034;29;20233;-66
2022/08/20 12:35:30;;;;;;;4.40;1.17;;;28.00;99.90;;;;;;4873069;29;20683;-66
2022/08/20 12:38:01;;;;;;;3.87;1.17;;;28.00;99.90;;;;;;4877970;29;20240;-66
2022/08/20 12:40:30;;;;;;;2.60;1.00;;;27.80;99.90;;;;;;4876276;29;20323;-66
2022/08/20 12:43:00;;;;;;;3.43;1.20;;;27.70;99.90;;;;;;4879295;29;20240;-66
2022/08/20 12:45:29;;;;;;;3.77;1.10;;;28.10;99.90;;;;;;4885922;29;20321;-66
2022/08/20 12:48:03;;;;;;;4.37;1.10;;;28.20;99.90;;;;;;4882500;29;20240;-66
2022/08/20 12:50:32;;;;;;;2.60;0.90;;;27.90;99.90;;;;;;4881874;29;20260;-66
2022/08/20 12:53:01;;;;;;;3.50;1.13;;;27.60;99.90;;;;;;4881538;29;20590;-66
2022/08/20 12:55:30;;;;;;;2.83;0.93;;;27.40;99.90;;;;;;4880844;29;20317;-65
2022/08/20 12:58:00;;;;;;;6.43;1.10;;;27.30;99.90;;;;;;4880079;29;20230;-66
2022/08/20 13:00:30;;;;;;;5.60;1.30;;;27.00;99.90;;;;;;4899935;29;20240;-66
2022/08/20 13:03:03;;;;;;;3.40;1.13;;;26.70;99.90;;;;;;4885736;29;20236;-66